Pickle Lake, Canada
Current Conditions -  °F | °C
As of 5:00 PM on Sunday 21 Dec 2014 (Local Time) from CYPL Reporting Station
Light Snow Light Snow  
Wind Chill: 20°   Ceiling: 1200
Heat Index: 28°   Visibility: 4mi
Dew Point: 27°   Wind: 8mph
Humidity: 93%   Direction: 150°SSE
Pressure: 29.75"   Gusts: NA
Location:  51.47°N, 90.18°W
Report Text: CYPL 212300Z 15007KT 4SM -SN SCT006 BKN012 BKN230 M02/M03 A2975 RMK SF4SC2CI1 SLP098
Loading
Personal Weather Stations






























Interactive Weather Map New forecast layout! Learn more

10-Day Weather Forecast

Advertisements
Track Severe Weather on mobile